Time;durP1;ratioP1;P1;durP2;ratioP2;P2;SDS_P1;SDS_P2;PMS_P1;PMS_P2;Temp;Humidity;BMP_temperature;BMP_pressure;BME280_temperature;BME280_humidity;BME280_pressure;Samples;Min_cycle;Max_cycle;Signal;HPM_P1;HPM_P2
2021/04/12 00:01:59;;;;;;;19.62;7.75;;;;;;;7.66;49.25;101539.27;1760793;81;21153;-50
2021/04/12 00:04:48;;;;;;;14.47;7.75;;;;;;;7.60;49.27;101540.21;1769780;81;21073;-50
2021/04/12 00:07:33;;;;;;;23.15;9.95;;;;;;;7.55;49.22;101534.04;1770100;81;21709;-51
2021/04/12 00:10:09;;;;;;;18.70;9.23;;;;;;;7.52;49.02;101535.84;1769667;81;21117;-50
2021/04/12 00:12:48;;;;;;;23.20;11.20;;;;;;;7.50;49.23;101529.17;1770119;81;21169;-50
2021/04/12 00:15:28;;;;;;;15.72;9.38;;;;;;;7.49;49.13;101527.88;1770143;81;21513;-51
2021/04/12 00:18:00;;;;;;;21.40;9.75;;;;;;;7.48;49.09;101523.44;1776050;80;21099;-51
2021/04/12 00:20:54;;;;;;;25.08;10.60;;;;;;;7.45;49.14;101517.23;1734399;81;21065;-51
2021/04/12 00:23:39;;;;;;;17.07;9.85;;;;;;;7.43;49.06;101508.36;1822022;78;21150;-51
2021/04/12 00:26:17;;;;;;;15.75;8.70;;;;;;;7.40;49.02;101515.50;1822028;78;20972;-50
2021/04/12 00:28:53;;;;;;;22.95;9.88;;;;;;;7.37;49.14;101515.06;1821932;78;21063;-51
2021/04/12 00:31:46;;;;;;;18.75;10.58;;;;;;;7.34;49.49;101512.90;1821715;78;20959;-51
2021/04/12 00:34:31;;;;;;;22.02;9.50;;;;;;;7.30;49.78;101514.70;1821949;78;21794;-51
2021/04/12 00:37:01;;;;;;;;;;;;;;;7.26;50.17;101508.97;1824723;78;20924;-51
2021/04/12 00:39:36;;;;;;;16.17;8.38;;;;;;;7.23;50.57;101506.33;1822113;78;20213;-51
2021/04/12 00:42:16;;;;;;;18.32;10.18;;;;;;;7.16;50.84;101510.36;1804205;78;20971;-51
2021/04/12 00:44:58;;;;;;;16.95;8.98;;;;;;;7.12;51.15;101503.29;1821845;78;21114;-50
2021/04/12 00:47:51;;;;;;;18.60;9.68;;;;;;;7.08;51.27;101496.22;1822080;78;21200;-50
2021/04/12 00:50:59;;;;;;;20.23;9.25;;;;;;;7.05;51.43;101495.34;1821478;78;21066;-50
2021/04/12 00:53:45;;;;;;;18.02;9.50;;;;;;;7.03;51.54;101490.91;1822047;78;21059;-50
2021/04/12 00:56:33;;;;;;;20.92;9.53;;;;;;;7.02;51.66;101493.61;1821982;78;21155;-51
2021/04/12 00:59:09;;;;;;;20.43;10.95;;;;;;;7.01;51.79;101476.71;1821840;78;21099;-51
2021/04/12 01:01:55;;;;;;;19.80;9.08;;;;;;;7.00;51.78;101485.61;1791044;78;21178;-51
2021/04/12 01:04:50;;;;;;;20.08;9.90;;;;;;;7.06;51.86;101482.45;1873040;76;27019;-51
2021/04/12 01:08:05;;;;;;;18.32;10.63;;;;;;;7.00;51.88;101480.28;1780573;78;21516;-51
2021/04/12 01:11:18;;;;;;;21.45;10.70;;;;;;;7.01;51.96;101478.52;1840864;78;21191;-51
2021/04/12 01:14:01;;;;;;;21.07;10.30;;;;;;;6.99;52.13;101471.84;1840875;78;21008;-51
2021/04/12 01:16:49;;;;;;;21.30;10.08;;;;;;;6.97;52.15;101473.64;1840937;78;21068;-50
2021/04/12 01:19:39;;;;;;;25.00;12.80;;;;;;;6.97;52.45;101468.77;1827372;78;20928;-50
2021/04/12 01:22:22;;;;;;;22.90;12.05;;;;;;;6.95;52.28;101465.20;1824819;78;21051;-50
2021/04/12 01:25:17;;;;;;;20.35;10.00;;;;;;;6.94;52.23;101466.11;1824832;78;21603;-50
2021/04/12 01:28:33;;;;;;;22.30;10.80;;;;;;;6.94;52.05;101460.34;1824905;78;21106;-50
2021/04/12 01:31:22;;;;;;;16.87;9.70;;;;;;;6.93;51.99;101447.01;1825008;78;20968;-51
2021/04/12 01:34:12;;;;;;;19.32;9.28;;;;;;;6.95;51.48;101454.55;1824783;78;21123;-51
2021/04/12 01:36:46;;;;;;;17.70;9.00;;;;;;;6.97;51.39;101444.78;1824329;78;21059;-51
2021/04/12 01:39:36;;;;;;;22.17;10.50;;;;;;;6.96;51.51;101434.55;1824748;78;21696;-52
2021/04/12 01:42:20;;;;;;;22.90;10.18;;;;;;;6.97;50.97;101430.98;1824745;78;21134;-51
2021/04/12 01:44:53;;;;;;;18.75;9.78;;;;;;;7.00;50.92;101432.75;1824568;78;21174;-51
2021/04/12 01:47:59;;;;;;;16.65;9.35;;;;;;;7.00;50.55;101427.42;1804456;78;21035;-51
2021/04/12 01:51:04;;;;;;;16.15;9.18;;;;;;;7.03;50.67;101428.72;1824920;78;21118;-52
2021/04/12 01:53:57;;;;;;;17.45;9.45;;;;;;;7.01;50.75;101427.38;1809111;78;21353;-51
2021/04/12 01:56:47;;;;;;;28.02;12.58;;;;;;;7.01;51.04;101425.19;1828507;78;21108;-50
2021/04/12 01:59:38;;;;;;;20.68;11.53;;;;;;;7.01;50.97;101419.85;1840821;78;21128;-50
2021/04/12 02:02:33;;;;;;;20.65;11.45;;;;;;;7.02;51.19;101420.28;1816480;78;21156;-50
2021/04/12 02:05:48;;;;;;;17.80;10.35;;;;;;;7.03;51.09;101415.39;1841084;78;21023;-51
2021/04/12 02:08:38;;;;;;;20.55;11.57;;;;;;;7.03;51.10;101426.05;1840790;78;21362;-51
2021/04/12 02:11:17;;;;;;;20.12;10.95;;;;;;;7.01;50.80;101427.38;1840742;78;21111;-50
2021/04/12 02:14:35;;;;;;;21.87;10.43;;;;;;;7.03;50.96;101423.39;1840834;78;21116;-50
2021/04/12 02:17:14;;;;;;;20.85;9.15;;;;;;;7.01;51.02;101419.85;1840238;78;21132;-50
2021/04/12 02:20:12;;;;;;;22.80;10.43;;;;;;;6.99;51.26;101429.65;1807262;79;21155;-51
2021/04/12 02:22:57;;;;;;;19.42;9.23;;;;;;;6.98;51.39;101423.42;1807239;79;21333;-50
2021/04/12 02:25:45;;;;;;;;;;;;;;;6.98;51.34;101422.55;1809846;79;21116;-50
2021/04/12 02:28:50;;;;;;;17.90;9.20;;;;;;;6.96;51.53;101433.22;1807289;79;20265;-52
2021/04/12 02:31:42;;;;;;;16.65;9.23;;;;;;;6.95;51.50;101428.78;1807251;79;21036;-50
2021/04/12 02:34:27;;;;;;;18.40;9.35;;;;;;;6.93;51.43;101420.34;1807203;79;21061;-50
2021/04/12 02:37:25;;;;;;;17.12;8.98;;;;;;;6.90;51.43;101423.95;1807302;79;21767;-50
2021/04/12 02:40:16;;;;;;;19.12;9.25;;;;;;;6.88;51.53;101424.41;1807156;79;21171;-50
2021/04/12 02:43:07;;;;;;;21.68;10.70;;;;;;;6.86;51.80;101415.09;1807221;79;21143;-50
2021/04/12 02:46:16;;;;;;;23.07;10.90;;;;;;;6.84;51.65;101419.55;1807170;79;21135;-51
2021/04/12 02:49:07;;;;;;;20.77;8.78;;;;;;;6.87;51.40;101415.52;1807236;79;21563;-50
2021/04/12 02:51:40;;;;;;;21.77;8.60;;;;;;;6.94;51.14;101420.78;1806882;79;21368;-50
2021/04/12 02:54:51;;;;;;;19.40;8.08;;;;;;;6.98;51.13;101419.89;1807101;79;21080;-50
2021/04/12 02:58:02;;;;;;;18.23;8.08;;;;;;;7.00;51.06;101418.08;1817482;78;21068;-51
2021/04/12 03:00:36;;;;;;;16.37;7.45;;;;;;;6.99;51.16;101414.98;1824189;78;21035;-50
2021/04/12 03:03:24;;;;;;;14.70;6.60;;;;;;;7.01;51.02;101417.19;1824811;78;21197;-50
2021/04/12 03:06:06;;;;;;;13.45;7.17;;;;;;;7.03;50.89;101415.39;1830226;78;21383;-50
2021/04/12 03:09:05;;;;;;;18.40;7.50;;;;;;;7.05;50.58;101412.69;1830311;77;21136;-51
2021/04/12 03:12:01;;;;;;;15.35;6.95;;;;;;;7.07;50.32;101420.22;1807098;77;21113;-50
2021/04/12 03:15:11;;;;;;;16.80;7.83;;;;;;;7.08;50.38;101416.22;1830293;77;21047;-51
2021/04/12 03:17:54;;;;;;;15.23;7.40;;;;;;;7.06;50.35;101417.12;1830504;78;21107;-51
2021/04/12 03:20:39;;;;;;;20.60;7.95;;;;;;;7.02;50.30;101413.62;1832014;78;22182;-50
2021/04/12 03:23:16;;;;;;;;;;;;;;;7.00;50.45;101416.75;1834636;77;21132;-50
2021/04/12 03:26:15;;;;;;;23.90;11.22;;;;;;;6.96;50.42;101406.55;1832059;78;20210;-50
2021/04/12 03:28:53;;;;;;;19.55;8.48;;;;;;;6.93;50.57;101413.25;1831999;77;21127;-50
2021/04/12 03:31:38;;;;;;;19.52;9.05;;;;;;;6.91;50.68;101406.16;1832149;78;22370;-50
2021/04/12 03:34:37;;;;;;;;;;;;;;;6.90;50.73;101412.38;1834729;78;21676;-50
2021/04/12 03:37:44;;;;;;;20.45;8.05;;;;;;;6.90;50.96;101413.72;1832083;78;20150;-51
2021/04/12 03:40:41;;;;;;;21.25;8.48;;;;;;;6.90;50.84;101412.38;1831972;78;21178;-50
2021/04/12 03:43:52;;;;;;;17.12;8.80;;;;;;;6.89;50.91;101410.19;1830745;77;20957;-51
2021/04/12 03:46:47;;;;;;;17.20;8.85;;;;;;;6.88;50.93;101409.75;1831993;77;21055;-51
2021/04/12 03:49:54;;;;;;;20.25;11.40;;;;;;;6.90;51.25;101407.05;1831931;77;21135;-51
2021/04/12 03:52:58;;;;;;;24.37;11.08;;;;;;;7.00;50.60;101407.42;1889391;76;27940;-51
2021/04/12 03:56:03;;;;;;;16.37;8.63;;;;;;;7.01;50.13;101412.72;1855436;77;21036;-51
2021/04/12 03:59:08;;;;;;;19.30;9.18;;;;;;;7.09;50.42;101429.98;1826620;78;21527;-51
2021/04/12 04:02:02;;;;;;;20.27;8.83;;;;;;;7.15;50.25;101424.58;1826653;78;20893;-50
2021/04/12 04:04:45;;;;;;;22.90;10.72;;;;;;;7.19;50.68;101424.11;1826590;78;20925;-51
2021/04/12 04:07:53;;;;;;;23.42;11.10;;;;;;;7.21;50.62;101414.30;1826566;78;20977;-51
2021/04/12 04:11:02;;;;;;;24.37;11.60;;;;;;;7.28;50.17;101419.14;1826594;78;21202;-52
2021/04/12 04:13:42;;;;;;;22.20;9.33;;;;;;;7.37;49.74;101420.83;1826584;78;21197;-50
2021/04/12 04:16:41;;;;;;;26.82;10.50;;;;;;;7.42;49.61;101426.55;1826309;78;21516;-51
2021/04/12 04:19:42;;;;;;;23.67;11.35;;;;;;;7.44;49.60;101428.75;1794987;78;21039;-50
2021/04/12 04:22:37;;;;;;;24.45;12.73;;;;;;;7.42;49.65;101423.89;1829941;78;21162;-51
2021/04/12 04:25:22;;;;;;;24.30;9.70;;;;;;;7.42;49.87;101429.22;1830081;78;21070;-51
2021/04/12 04:28:37;;;;;;;21.27;10.98;;;;;;;7.46;50.07;101432.72;1830134;78;21375;-50
2021/04/12 04:31:44;;;;;;;19.17;10.15;;;;;;;7.47;50.11;101434.95;1830053;78;21106;-51
2021/04/12 04:34:32;;;;;;;21.73;9.53;;;;;;;7.49;50.02;101447.35;1829969;78;21121;-51
2021/04/12 04:37:17;;;;;;;23.10;9.15;;;;;;;7.53;50.17;101445.55;1829954;78;21022;-51
2021/04/12 04:40:17;;;;;;;26.95;10.15;;;;;;;7.56;50.35;101443.73;1830033;78;21042;-51
2021/04/12 04:43:20;;;;;;;24.37;10.90;;;;;;;7.60;50.04;101445.47;1830132;78;21201;-51
2021/04/12 04:46:11;;;;;;;28.17;13.40;;;;;;;7.66;50.21;101449.86;1829965;78;21051;-51
2021/04/12 04:49:21;;;;;;;30.68;13.20;;;;;;;7.72;50.12;101446.20;1830035;78;21063;-50
2021/04/12 04:52:45;;;;;;;32.48;12.90;;;;;;;7.80;50.00;101444.78;1829857;77;21054;-51
2021/04/12 04:55:45;;;;;;;37.60;14.23;;;;;;;7.85;49.85;101446.50;1830050;78;21094;-51
2021/04/12 04:58:58;;;;;;;29.75;15.75;;;;;;;7.92;49.84;101446.41;1859699;77;21692;-50
2021/04/12 05:01:46;;;;;;;29.85;14.28;;;;;;;7.97;49.77;101441.45;1860148;77;21065;-51
2021/04/12 05:04:31;;;;;;;27.07;13.03;;;;;;;8.07;49.34;101450.66;1859618;77;20996;-51
2021/04/12 05:07:26;;;;;;;25.90;13.13;;;;;;;8.16;49.01;101442.55;1859229;77;21051;-50
2021/04/12 05:10:50;;;;;;;29.02;11.18;;;;;;;8.22;49.21;101446.46;1859587;77;21103;-50
2021/04/12 05:13:46;;;;;;;21.30;10.75;;;;;;;8.27;48.95;101443.27;1859572;77;21196;-51
2021/04/12 05:16:45;;;;;;;23.42;10.58;;;;;;;8.34;48.88;101435.18;1852735;77;21063;-51
2021/04/12 05:19:37;;;;;;;26.90;10.50;;;;;;;8.38;48.79;101439.57;1831161;77;21115;-51
2021/04/12 05:22:34;;;;;;;26.05;9.55;;;;;;;8.42;48.86;101446.19;1824139;78;21137;-51
2021/04/12 05:25:27;;;;;;;32.15;10.13;;;;;;;8.45;48.70;101438.13;1824164;78;21098;-51
2021/04/12 05:28:22;;;;;;;26.45;10.40;;;;;;;8.50;48.68;101442.07;1824218;78;21514;-51
2021/04/12 05:31:33;;;;;;;27.90;10.55;;;;;;;8.57;48.56;101434.41;1824042;77;21090;-51
2021/04/12 05:34:44;;;;;;;19.70;9.55;;;;;;;8.64;48.43;101434.30;1824159;78;21106;-51
2021/04/12 05:37:53;;;;;;;25.43;10.10;;;;;;;8.70;48.31;101427.52;1824169;78;21146;-50
2021/04/12 05:40:46;;;;;;;25.82;11.05;;;;;;;8.77;48.01;101428.30;1824128;78;21114;-51
2021/04/12 05:43:31;;;;;;;28.30;10.60;;;;;;;8.84;47.98;101426.84;1824121;78;21708;-51
2021/04/12 05:46:40;;;;;;;26.82;10.60;;;;;;;8.93;47.60;101424.47;1824163;78;20932;-51
2021/04/12 05:49:28;;;;;;;25.97;11.12;;;;;;;9.00;47.38;101427.45;1804635;78;21090;-51
2021/04/12 05:52:26;;;;;;;29.63;10.48;;;;;;;9.08;47.35;101434.01;1823928;77;21067;-50
2021/04/12 05:55:48;;;;;;;26.70;10.75;;;;;;;9.16;47.36;101432.06;1804186;78;21094;-51
2021/04/12 05:58:43;;;;;;;21.75;11.22;;;;;;;9.25;47.12;101426.14;1825841;78;21431;-51
2021/04/12 06:01:51;;;;;;;26.60;10.95;;;;;;;9.34;46.92;101424.61;1825912;78;21147;-51
2021/04/12 06:04:57;;;;;;;31.23;12.45;;;;;;;9.39;46.89;101421.39;1825964;78;21030;-51
2021/04/12 06:08:11;;;;;;;34.43;12.30;;;;;;;9.48;46.85;101423.48;1798711;78;21570;-51
2021/04/12 06:11:03;;;;;;;27.40;11.75;;;;;;;9.56;46.69;101420.18;1825824;78;21139;-51
2021/04/12 06:14:01;;;;;;;32.90;11.65;;;;;;;9.64;46.68;101423.61;1825778;78;21348;-51
2021/04/12 06:16:51;;;;;;;26.68;12.68;;;;;;;9.74;46.60;101422.96;1825812;78;20960;-52
2021/04/12 06:19:59;;;;;;;28.65;12.07;;;;;;;9.85;46.84;101420.92;1777193;78;21086;-53
2021/04/12 06:23:04;;;;;;;25.55;12.18;;;;;;;9.94;46.90;101421.62;1821727;78;21078;-52
2021/04/12 06:26:16;;;;;;;27.50;11.65;;;;;;;10.08;46.65;101421.35;1822105;78;21165;-52
2021/04/12 06:29:26;;;;;;;23.38;10.82;;;;;;;10.24;46.47;101416.05;1822099;78;21176;-51
2021/04/12 06:32:36;;;;;;;28.00;12.98;;;;;;;10.40;45.91;101415.70;1776105;80;21173;-51
2021/04/12 06:35:31;;;;;;;34.90;13.25;;;;;;;10.56;45.29;101425.62;1776217;80;21150;-51
2021/04/12 06:38:49;;;;;;;30.30;12.13;;;;;;;10.68;45.07;101427.13;1821305;78;21110;-52
2021/04/12 06:42:02;;;;;;;32.50;13.45;;;;;;;10.81;44.32;101421.89;1822114;78;21051;-51
2021/04/12 06:45:09;;;;;;;32.98;13.08;;;;;;;10.89;44.15;101413.17;1822048;77;21521;-51
2021/04/12 06:47:54;;;;;;;34.43;12.65;;;;;;;11.00;44.10;101419.60;1836754;77;21074;-55
2021/04/12 06:50:31;;;;;;;;;;;;;;;11.16;43.33;101420.55;1783376;80;21154;-52
2021/04/12 06:53:07;;;;;;;33.42;12.65;;;;;;;11.27;42.72;101409.08;1786645;80;20266;-51
2021/04/12 06:56:00;;;;;;;35.03;12.90;;;;;;;11.42;42.59;101409.11;1783414;80;21102;-51
2021/04/12 06:58:42;;;;;;;24.85;12.00;;;;;;;11.67;42.22;101419.15;1733557;82;21711;-51
2021/04/12 07:01:50;;;;;;;34.30;13.03;;;;;;;11.94;40.97;101417.05;1702277;82;21065;-52
2021/04/12 07:04:35;;;;;;;26.23;13.13;;;;;;;12.06;40.99;101414.48;1733442;82;21082;-51
2021/04/12 07:07:30;;;;;;;37.13;13.93;;;;;;;12.28;40.24;101420.95;1733424;82;21165;-52
2021/04/12 07:10:13;;;;;;;33.33;14.73;;;;;;;12.46;40.45;101423.95;1733551;82;21482;-50
2021/04/12 07:13:18;;;;;;;28.07;13.70;;;;;;;12.50;39.77;101412.20;1733451;82;21432;-51
2021/04/12 07:16:04;;;;;;;30.17;13.07;;;;;;;12.64;40.28;101421.61;1732771;82;21058;-52
2021/04/12 07:19:20;;;;;;;30.17;13.55;;;;;;;12.83;40.38;101426.80;1740840;81;21908;-55
2021/04/12 07:22:26;;;;;;;21.25;11.68;;;;;;;13.00;39.91;101430.25;1755480;81;21107;-56
2021/04/12 07:25:33;;;;;;;26.12;11.63;;;;;;;13.13;38.27;101438.77;1734139;81;21125;-55
2021/04/12 07:28:44;;;;;;;20.55;11.10;;;;;;;13.09;38.30;101429.05;1678385;84;21573;-52
2021/04/12 07:31:41;;;;;;;21.73;12.03;;;;;;;13.04;38.56;101428.34;1676287;84;21171;-52
2021/04/12 07:34:35;;;;;;;20.65;11.15;;;;;;;12.98;38.90;101424.52;1731815;82;21509;-51
2021/04/12 07:37:48;;;;;;;19.48;11.85;;;;;;;12.87;39.14;101424.41;1733578;82;21245;-51
2021/04/12 07:41:04;;;;;;;19.15;11.65;;;;;;;12.77;39.86;101422.08;1733452;82;21153;-52
2021/04/12 07:43:55;;;;;;;25.05;12.70;;;;;;;12.52;40.90;101426.92;1733667;82;21526;-51
2021/04/12 07:46:46;;;;;;;22.02;12.20;;;;;;;12.35;41.55;101431.02;1723977;82;21152;-51
2021/04/12 07:49:45;;;;;;;23.47;12.43;;;;;;;12.29;42.18;101428.53;1733491;82;21011;-51
2021/04/12 07:52:28;;;;;;;23.62;11.63;;;;;;;12.29;41.98;101427.19;1709738;81;21520;-52
2021/04/12 07:55:11;;;;;;;21.48;11.88;;;;;;;12.29;42.08;101425.41;1772815;79;21094;-51
2021/04/12 07:57:56;;;;;;;20.50;12.23;;;;;;;12.25;41.92;101426.87;1744059;79;21218;-52
2021/04/12 08:00:59;;;;;;;21.45;11.60;;;;;;;12.18;42.12;101424.84;1720652;80;21135;-51
2021/04/12 08:04:01;;;;;;;17.65;11.80;;;;;;;12.11;42.02;101424.14;1796686;79;21070;-51
2021/04/12 08:07:00;;;;;;;21.75;11.55;;;;;;;12.10;42.05;101421.52;1773924;80;21096;-51
2021/04/12 08:09:56;;;;;;;26.35;12.15;;;;;;;12.21;41.79;101425.22;1796775;79;21095;-52
2021/04/12 08:12:35;;;;;;;22.17;12.18;;;;;;;12.29;42.15;101419.13;1773989;80;21543;-51
2021/04/12 08:15:38;;;;;;;20.75;11.68;;;;;;;12.39;42.59;101419.72;1769817;79;21537;-51
2021/04/12 08:18:30;;;;;;;20.62;11.80;;;;;;;12.54;42.29;101419.23;1781122;79;21062;-51
2021/04/12 08:21:37;;;;;;;22.93;11.55;;;;;;;12.67;41.78;101424.19;1770735;80;21069;-51
2021/04/12 08:24:40;;;;;;;23.42;11.85;;;;;;;12.71;41.09;101409.70;1782124;79;21109;-51
2021/04/12 08:27:43;;;;;;;21.52;11.85;;;;;;;12.71;41.20;101408.35;1781162;79;21301;-51
2021/04/12 08:30:43;;;;;;;26.42;12.55;;;;;;;12.64;41.09;101416.23;1769652;80;21088;-51
2021/04/12 08:33:59;;;;;;;18.57;11.68;;;;;;;12.53;41.51;101408.06;1778218;78;21175;-51
2021/04/12 08:36:45;;;;;;;24.87;11.38;;;;;;;12.54;42.11;101408.47;1766501;80;21051;-51
2021/04/12 08:39:42;;;;;;;21.23;12.45;;;;;;;12.51;42.23;101404.55;1736655;80;21122;-52
2021/04/12 08:42:18;;;;;;;22.50;11.95;;;;;;;12.51;42.86;101400.51;1825719;78;21701;-52
2021/04/12 08:45:33;;;;;;;24.95;12.65;;;;;;;12.51;42.20;101397.81;1791445;80;21069;-53
2021/04/12 08:48:59;;;;;;;19.65;11.48;;;;;;;12.36;42.74;101394.27;1729742;80;21137;-52
2021/04/12 08:52:07;;;;;;;25.07;12.83;;;;;;;12.32;43.31;101387.66;1825869;78;21058;-52
2021/04/12 08:55:17;;;;;;;25.27;12.10;;;;;;;12.30;43.58;101394.89;1825607;78;21061;-53
2021/04/12 08:58:02;;;;;;;24.32;11.63;;;;;;;12.32;43.79;101393.03;1776667;78;21191;-51
2021/04/12 09:01:08;;;;;;;21.73;11.12;;;;;;;12.24;44.17;101391.03;1746338;80;21104;-51
2021/04/12 09:03:43;;;;;;;25.75;13.40;;;;;;;12.27;44.44;101393.65;1763386;81;21068;-51
2021/04/12 09:06:18;;;;;;;21.52;11.70;;;;;;;12.36;44.61;101388.89;1775136;80;21151;-51
2021/04/12 09:09:25;;;;;;;21.85;11.25;;;;;;;12.41;44.54;101386.93;1763188;81;21160;-51
2021/04/12 09:12:09;;;;;;;21.55;11.33;;;;;;;12.41;44.70;101386.48;1775120;80;21233;-51
2021/04/12 09:15:05;;;;;;;16.27;10.43;;;;;;;12.38;45.12;101381.66;1763361;81;21062;-53
2021/04/12 09:18:10;;;;;;;;;;;;;;;12.30;45.53;101381.90;1779748;80;21151;-52
2021/04/12 09:21:18;;;;;;;19.05;10.35;;;;;;;12.18;45.98;101376.45;1790930;80;20218;-52
2021/04/12 09:24:41;;;;;;;19.82;10.80;;;;;;;12.13;46.49;101376.59;1810305;78;21083;-52
2021/04/12 09:27:53;;;;;;;19.73;10.78;;;;;;;12.06;47.39;101375.03;1795361;80;21691;-51
2021/04/12 09:31:02;;;;;;;19.52;11.05;;;;;;;12.04;47.74;101383.13;1803774;79;21088;-51
2021/04/12 09:34:05;;;;;;;17.95;10.15;;;;;;;12.09;47.59;101384.34;1803422;79;21095;-52
2021/04/12 09:37:06;;;;;;;18.65;11.10;;;;;;;12.02;47.93;101372.89;1803818;79;20945;-51
2021/04/12 09:40:02;;;;;;;18.85;10.45;;;;;;;11.97;48.59;101382.87;1768843;79;21171;-51
2021/04/12 09:42:59;;;;;;;23.35;10.25;;;;;;;11.93;49.24;101377.19;1790368;78;21568;-52
2021/04/12 09:45:48;;;;;;;17.95;10.50;;;;;;;11.98;49.37;101381.95;1789582;79;21168;-52
2021/04/12 09:48:39;;;;;;;18.70;9.78;;;;;;;12.05;49.30;101371.93;1779288;79;21168;-51
2021/04/12 09:51:46;;;;;;;20.35;10.82;;;;;;;12.16;49.57;101371.14;1799055;79;21109;-51
2021/04/12 09:54:39;;;;;;;19.32;10.25;;;;;;;12.24;49.74;101366.83;1782124;80;21118;-51
2021/04/12 09:57:50;;;;;;;19.20;10.65;;;;;;;12.19;49.89;101355.36;1783448;79;21695;-51
2021/04/12 10:00:30;;;;;;;16.07;9.98;;;;;;;12.16;50.64;101352.77;1786778;80;21079;-50
2021/04/12 10:03:39;;;;;;;18.05;10.72;;;;;;;12.17;51.06;101353.19;1804386;79;21189;-51
2021/04/12 10:06:32;;;;;;;18.75;11.15;;;;;;;12.24;51.29;101350.70;1786729;80;21066;-51
2021/04/12 10:09:35;;;;;;;16.45;9.48;;;;;;;12.43;51.14;101354.14;1796240;79;21147;-51
2021/04/12 10:12:27;;;;;;;18.45;10.78;;;;;;;12.53;50.97;101355.61;1796792;78;21371;-51
2021/04/12 10:15:30;;;;;;;17.07;10.75;;;;;;;12.57;51.22;101350.98;1773184;80;21214;-51
2021/04/12 10:18:24;;;;;;;18.82;10.78;;;;;;;12.55;51.40;101344.33;1791894;78;21096;-51
2021/04/12 10:21:32;;;;;;;18.17;11.08;;;;;;;12.53;51.91;101350.23;1773034;80;21207;-51
2021/04/12 10:24:28;;;;;;;18.82;10.72;;;;;;;12.52;52.33;101355.64;1773063;80;21178;-51
2021/04/12 10:27:19;;;;;;;15.88;10.95;;;;;;;12.47;52.46;101349.06;1773129;80;22172;-51
2021/04/12 10:30:10;;;;;;;17.70;10.35;;;;;;;12.32;52.91;101348.66;1772833;80;21171;-51
2021/04/12 10:32:52;;;;;;;24.92;11.35;;;;;;;12.21;53.69;101349.46;1772859;80;21147;-51
2021/04/12 10:35:34;;;;;;;16.65;10.38;;;;;;;12.15;54.38;101351.87;1772958;80;21061;-51
2021/04/12 10:38:26;;;;;;;17.07;10.82;;;;;;;12.12;55.02;101352.46;1773294;80;21171;-51
2021/04/12 10:41:27;;;;;;;19.80;11.93;;;;;;;12.04;55.57;101353.56;1773395;80;21112;-51
2021/04/12 10:44:31;;;;;;;20.50;11.08;;;;;;;11.96;56.39;101350.22;1771278;80;21226;-56
2021/04/12 10:47:23;;;;;;;16.93;10.08;;;;;;;11.91;56.93;101350.83;1773442;80;21072;-56
2021/04/12 10:50:33;;;;;;;20.27;11.48;;;;;;;11.95;57.17;101353.83;1773410;80;21087;-52
2021/04/12 10:53:25;;;;;;;20.15;11.10;;;;;;;11.94;57.42;101357.45;1772416;80;21111;-51
2021/04/12 10:56:02;;;;;;;20.27;11.15;;;;;;;11.94;57.77;101364.16;1784963;80;21415;-51
2021/04/12 10:59:16;;;;;;;22.05;11.80;;;;;;;11.96;58.05;101362.79;1763261;80;21089;-53
2021/04/12 11:01:57;;;;;;;17.65;11.12;;;;;;;11.96;58.61;101360.96;1784331;80;21105;-51
2021/04/12 11:05:02;;;;;;;22.52;11.75;;;;;;;11.99;58.94;101363.55;1757644;80;21668;-51
2021/04/12 11:07:51;;;;;;;17.67;11.00;;;;;;;11.99;59.25;101370.27;1808375;77;21058;-52
2021/04/12 11:10:42;;;;;;;19.57;10.82;;;;;;;11.94;59.77;101369.54;1792763;80;21745;-52
2021/04/12 11:13:30;;;;;;;19.25;11.22;;;;;;;11.88;60.29;101363.02;1772586;79;21483;-51
2021/04/12 11:16:39;;;;;;;19.60;10.80;;;;;;;11.86;60.58;101363.05;1785606;79;21062;-52
2021/04/12 11:19:19;;;;;;;18.05;10.82;;;;;;;11.88;60.92;101363.02;1798213;79;21485;-51
2021/04/12 11:22:12;;;;;;;16.20;10.63;;;;;;;11.81;61.08;101356.95;1825238;78;21099;-52
2021/04/12 11:24:54;;;;;;;22.15;11.63;;;;;;;11.76;61.78;101357.55;1825255;78;21679;-52
2021/04/12 11:27:45;;;;;;;21.80;11.18;;;;;;;11.73;61.79;101353.14;1780813;79;21196;-51
2021/04/12 11:30:24;;;;;;;19.48;11.43;;;;;;;11.71;61.64;101349.63;1824591;78;21162;-51
2021/04/12 11:33:15;;;;;;;22.95;11.05;;;;;;;11.71;61.71;101341.57;1788233;78;21175;-51
2021/04/12 11:36:07;;;;;;;21.23;11.73;;;;;;;11.70;61.88;101349.21;1752326;81;21113;-51
2021/04/12 11:38:50;;;;;;;20.20;11.38;;;;;;;11.68;62.37;101347.04;1784763;80;21341;-52
2021/04/12 11:41:33;;;;;;;18.05;11.00;;;;;;;11.69;62.70;101347.45;1784879;80;21098;-51
2021/04/12 11:44:08;;;;;;;18.15;11.50;;;;;;;11.71;62.86;101336.20;1784889;80;21134;-52
2021/04/12 11:47:00;;;;;;;22.17;11.73;;;;;;;11.73;62.56;101333.00;1784994;80;21672;-52
2021/04/12 11:49:52;;;;;;;17.65;11.33;;;;;;;11.71;62.51;101330.83;1784989;80;21118;-52
2021/04/12 11:52:30;;;;;;;22.52;11.95;;;;;;;11.71;62.61;101322.77;1771263;80;21674;-51
2021/04/12 11:55:15;;;;;;;22.15;12.25;;;;;;;11.73;62.72;101324.94;1755161;81;21077;-52
2021/04/12 11:58:08;;;;;;;22.77;11.80;;;;;;;11.70;62.47;101322.35;1763364;79;21125;-52
2021/04/12 12:01:00;;;;;;;19.90;11.78;;;;;;;11.68;62.88;101323.31;1755567;81;21168;-52
2021/04/12 12:04:00;;;;;;;24.37;10.90;;;;;;;11.69;63.15;101325.07;1782242;80;21147;-51
2021/04/12 12:06:43;;;;;;;17.75;11.03;;;;;;;11.71;62.89;101323.21;1783242;80;21157;-51
2021/04/12 12:09:38;;;;;;;21.12;12.07;;;;;;;11.67;63.00;101326.48;1784896;80;21066;-52
2021/04/12 12:12:35;;;;;;;20.55;10.63;;;;;;;11.62;63.31;101327.09;1783284;80;21075;-52
2021/04/12 12:15:48;;;;;;;18.90;11.45;;;;;;;11.61;63.96;101323.98;1785046;80;21103;-53
2021/04/12 12:18:39;;;;;;;19.92;12.20;;;;;;;11.58;64.39;101320.02;1774641;80;21047;-51
2021/04/12 12:21:26;;;;;;;18.15;11.05;;;;;;;11.52;64.56;101321.11;1792893;80;21317;-52
2021/04/12 12:24:09;;;;;;;17.32;11.35;;;;;;;11.50;64.99;101330.12;1759838;81;21130;-51
2021/04/12 12:26:43;;;;;;;21.33;12.13;;;;;;;11.45;65.50;101328.91;1792945;80;21058;-52
2021/04/12 12:29:19;;;;;;;19.42;11.88;;;;;;;11.37;65.89;101329.13;1773502;80;21129;-52
2021/04/12 12:32:07;;;;;;;21.75;11.30;;;;;;;11.38;66.10;101335.39;1786504;80;21196;-51
2021/04/12 12:34:58;;;;;;;18.00;10.80;;;;;;;11.36;66.41;101332.73;1816983;79;21195;-52
2021/04/12 12:37:34;;;;;;;21.15;11.12;;;;;;;11.32;66.62;101328.39;1817195;79;21546;-52
2021/04/12 12:40:16;;;;;;;18.50;11.10;;;;;;;11.28;66.77;101341.48;1817038;79;21602;-51
2021/04/12 12:42:48;;;;;;;17.98;10.98;;;;;;;11.26;67.14;101342.00;1797296;79;21105;-51
2021/04/12 12:45:35;;;;;;;18.48;11.15;;;;;;;11.28;67.15;101336.13;1778439;80;21180;-51
2021/04/12 12:48:14;;;;;;;22.55;11.22;;;;;;;11.24;67.56;101342.51;1722605;79;22212;-52
2021/04/12 12:51:04;;;;;;;22.70;12.28;;;;;;;11.19;68.27;101349.34;1752931;80;21118;-52
2021/04/12 12:53:35;;;;;;;19.48;11.45;;;;;;;11.13;68.69;101349.04;1797204;79;21255;-51
2021/04/12 12:56:12;;;;;;;21.35;11.68;;;;;;;11.11;69.45;101346.86;1778978;80;21126;-52
2021/04/12 12:58:40;;;;;;;22.10;11.55;;;;;;;11.09;69.75;101344.69;1798506;79;21059;-52
2021/04/12 13:01:09;;;;;;;19.92;11.30;;;;;;;11.12;69.88;101340.56;1773936;79;21451;-51
2021/04/12 13:03:40;;;;;;;21.42;11.10;;;;;;;11.12;69.86;101339.23;1798385;79;21162;-51
2021/04/12 13:06:26;;;;;;;20.00;10.72;;;;;;;11.15;69.74;101343.16;1798532;79;21520;-52
2021/04/12 13:08:56;;;;;;;17.65;11.05;;;;;;;11.17;69.28;101337.32;1798446;79;21131;-51
2021/04/12 13:11:44;;;;;;;18.87;11.15;;;;;;;11.23;69.78;101338.06;1798348;79;21107;-52
2021/04/12 13:14:37;;;;;;;22.35;11.43;;;;;;;11.25;69.97;101337.55;1769967;79;21190;-51
2021/04/12 13:17:35;;;;;;;20.00;11.53;;;;;;;11.23;69.78;101334.03;1769093;81;21157;-51
2021/04/12 13:20:12;;;;;;;19.10;10.43;;;;;;;11.21;70.09;101335.89;1769192;81;21199;-51